Погода Рухеннана неделю

Великопольское воеводство, Польша

20 - 26 июля
  • 20июля
    Сегодня
    +15°
    +29°
    Небольшая облачность
    ВремяПогодаТемператураВлажностьДавлениеВетер, м/сВероятность осадков
    02:00Ясно и безоблачно+16°C82 %756 мм1.4 м/с2 %
    05:00Облачно с прояснениями+15°C81 %755 мм1.3 м/с2 %
    08:00Облачно с прояснениями+20°C68 %755 мм1.4 м/с2 %
    11:00Облачно с прояснениями+25°C46 %755 мм1.8 м/с2 %
    14:00Небольшая облачность+27°C41 %753 мм2.0 м/с2 %
    17:00Ясно и безоблачно+28°C39 %752 мм2.6 м/с2 %
    20:00Облачно с прояснениями+25°C53 %752 мм2.1 м/с2 %
    23:00Небольшая облачность+19°C65 %751 мм1.3 м/с2 %
  • 21июля
    Воскресенье
    +16°
    +30°
    Ясно и безоблачно
    ВремяПогодаТемператураВлажностьДавлениеВетер, м/сВероятность осадков
    02:00Ясно и безоблачно+17°C75 %751 мм1.5 м/с2 %
    05:00Ясно и безоблачно+15°C84 %751 мм1.5 м/с2 %
    08:00Ясно и безоблачно+21°C64 %751 мм1.6 м/с2 %
    11:00Ясно и безоблачно+27°C43 %751 мм2.0 м/с2 %
    14:00Ясно и безоблачно+29°C37 %750 мм2.1 м/с2 %
    17:00Ясно и безоблачно+30°C37 %750 мм3.0 м/с2 %
    20:00Ясно и безоблачно+27°C54 %750 мм2.3 м/с2 %
    23:00Ясно и безоблачно+20°C61 %750 мм2.2 м/с2 %
  • 22июля
    Понедельник
    +15°
    +30°
    Облачно с прояснениями
    ВремяПогодаТемператураВлажностьДавлениеВетер, м/сВероятность осадков
    02:00Ясно и безоблачно+18°C67 %750 мм1.7 м/с2 %
    05:00Ясно и безоблачно+16°C79 %750 мм1.7 м/с2 %
    08:00Ясно и безоблачно+22°C63 %751 мм1.9 м/с2 %
    11:00Практически безоблачно+28°C40 %751 мм2.0 м/с2 %
    14:00Облачно с прояснениями+30°C32 %751 мм2.3 м/с8 %
    17:00Облачно с прояснениями+29°C52 %752 мм3.4 м/с18 %
    20:00Облачно с прояснениями+26°C61 %752 мм2.3 м/с24 %
    23:00Практически безоблачно+22°C81 %753 мм2.0 м/с29 %
  • 23июля
    Вторник
    +14°
    +25°
    Небольшая облачность
    ВремяПогодаТемператураВлажностьДавлениеВетер, м/сВероятность осадков
    02:00Облачно с прояснениями+20°C83 %753 мм2.7 м/с36 %
    05:00Пасмурно, ливень+19°C94 %754 мм3.2 м/с39 %
    08:00Облачно с прояснениями+20°C83 %754 мм3.4 м/с31 %
    11:00Облачно с прояснениями+22°C59 %755 мм3.4 м/с29 %
    14:00Небольшая облачность+24°C47 %754 мм3.5 м/с31 %
    17:00Ясно и безоблачно+25°C42 %753 мм3.4 м/с26 %
    20:00Ясно и безоблачно+23°C55 %753 мм2.1 м/с19 %
    23:00Облачно с прояснениями+18°C68 %753 мм1.0 м/с14 %
Мы используем cookies
Соглашаюсь